Linton-on-ouse, United Kingdom
Current Conditions -  °F | °C
As of 6:50 PM on Friday 31 Oct 2014 (Local Time) from EGXU Reporting Station
Clear Clear  
Wind Chill: 63°   Ceiling: Unl
Heat Index: 63°   Visibility: 6mi
Dew Point: 54°   Wind: 12mph
Humidity: 72%   Direction: 170°S
Pressure: 29.8"   Gusts: NA
Location:  54.05°N, 1.25°W
Report Text: EGXU 311850Z AUTO 17010KT 9999 // NCD 17/12 Q1009
Loading
Personal Weather Stations






























Interactive Weather Map
Tropical Storm Tracking
New forecast layout! Learn more

10-Day Weather Forecast

Advertisements
Track Severe Weather on mobile